createdAt,value
2022-10-19T00:03:31.335Z,100
2022-10-19T00:08:32.933Z,100
2022-10-19T00:13:34.545Z,100
2022-10-19T00:18:36.097Z,100
2022-10-19T00:23:38.113Z,96.48874
2022-10-19T00:28:39.768Z,99.25827
2022-10-19T00:33:41.257Z,100
2022-10-19T00:38:42.783Z,100
2022-10-19T00:43:44.245Z,100
2022-10-19T00:48:45.747Z,100
2022-10-19T00:53:47.620Z,100
2022-10-19T00:58:49.175Z,100
2022-10-19T01:03:50.646Z,100
2022-10-19T01:08:52.159Z,100
2022-10-19T01:13:53.655Z,100
2022-10-19T01:18:55.190Z,100
2022-10-19T01:23:57.016Z,100
2022-10-19T01:28:58.607Z,100
2022-10-19T01:34:00.202Z,100
2022-10-19T01:39:01.813Z,100
2022-10-19T01:44:03.365Z,100
2022-10-19T01:49:04.825Z,100
2022-10-19T01:54:06.753Z,100
2022-10-19T01:59:08.206Z,100
2022-10-19T02:04:09.804Z,100
2022-10-19T02:09:11.369Z,100
2022-10-19T02:14:12.903Z,100
2022-10-19T02:19:14.511Z,99.8316
2022-10-19T02:24:16.875Z,99.41672
2022-10-19T02:29:18.296Z,100
2022-10-19T02:34:19.815Z,96.83697
2022-10-19T02:39:21.296Z,96.04968
2022-10-19T02:44:22.842Z,99.58164
2022-10-19T02:49:24.280Z,100
2022-10-19T02:54:26.508Z,97.1303
2022-10-19T02:59:27.980Z,100
2022-10-19T03:04:29.467Z,98.4858
2022-10-19T03:09:31.101Z,99.97114
2022-10-19T03:14:32.875Z,100
2022-10-19T03:19:35.103Z,100
2022-10-19T03:24:37.377Z,100
2022-10-19T03:29:39.177Z,100
2022-10-19T03:34:40.937Z,100
2022-10-19T03:39:42.715Z,100
2022-10-19T03:44:44.475Z,99.88856
2022-10-19T03:49:46.274Z,95.15068
2022-10-19T03:54:48.408Z,100
2022-10-19T03:59:49.902Z,100
2022-10-19T04:04:51.673Z,98.13346
2022-10-19T04:09:53.471Z,97.36647
2022-10-19T04:14:57.647Z,97.2998
2022-10-19T04:19:59.811Z,98.69053
2022-10-19T04:25:01.893Z,100
2022-10-19T04:30:03.692Z,94.58163
2022-10-19T04:35:05.525Z,96.20031
2022-10-19T04:40:10.387Z,94.25662
2022-10-19T04:45:14.290Z,94.99737
2022-10-19T04:50:15.985Z,91.8112
2022-10-19T04:55:18.282Z,94.30682
2022-10-19T05:00:19.746Z,89.72697
2022-10-19T05:05:21.199Z,88.58757
2022-10-19T05:10:22.657Z,86.57954
2022-10-19T05:15:24.147Z,88.78096
2022-10-19T05:20:25.641Z,88.91509
2022-10-19T05:25:28.052Z,89.2497
2022-10-19T05:30:29.514Z,89.12062
2022-10-19T05:35:31.012Z,88.95317
2022-10-19T05:40:32.817Z,91.04011
2022-10-19T05:45:34.638Z,87.45802
2022-10-19T05:50:36.402Z,84.75152
2022-10-19T05:55:38.712Z,83.9595
2022-10-19T06:00:40.539Z,82.90138
2022-10-19T06:05:42.265Z,78.30277
2022-10-19T06:10:44.066Z,79.49591
2022-10-19T06:15:45.752Z,78.22215
2022-10-19T06:20:47.875Z,75.88398
2022-10-19T06:25:49.891Z,75.4724
2022-10-19T06:30:51.827Z,72.50439
2022-10-19T06:35:53.754Z,73.9899
2022-10-19T06:40:55.671Z,68.62323
2022-10-19T06:45:57.485Z,66.3173
2022-10-19T06:50:59.278Z,66.99939
2022-10-19T06:56:01.294Z,64.82426
2022-10-19T07:01:03.155Z,62.19201
2022-10-19T07:06:04.888Z,64.13616
2022-10-19T07:11:06.574Z,62.56792
2022-10-19T07:16:08.331Z,61.5644
2022-10-19T07:21:10.112Z,61.73532
2022-10-19T07:26:12.347Z,58.8038
2022-10-19T07:31:13.836Z,58.18428
2022-10-19T07:36:15.369Z,58.52346
2022-10-19T07:41:16.862Z,56.8786
2022-10-19T07:46:18.502Z,60.45359
2022-10-19T07:51:20.128Z,58.4222
2022-10-19T07:56:22.736Z,58.41684
2022-10-19T08:01:24.233Z,54.35116
2022-10-19T08:06:25.754Z,55.57062
2022-10-19T08:11:27.290Z,55.10375
2022-10-19T08:16:28.925Z,53.8313
2022-10-19T08:21:30.403Z,53.58784
2022-10-19T08:26:33.179Z,52.18146
2022-10-19T08:31:34.659Z,48.11447
2022-10-19T08:36:36.284Z,50.40813
2022-10-19T08:41:38.000Z,48.46787
2022-10-19T08:46:39.535Z,46.35094
2022-10-19T08:51:41.013Z,45.27816
2022-10-19T08:56:50.998Z,45.96325
2022-10-19T09:01:53.137Z,47.07457
2022-10-19T09:06:54.716Z,46.81085
2022-10-19T09:11:56.562Z,44.55391
2022-10-19T09:16:58.094Z,42.06311
2022-10-19T09:21:59.568Z,42.05163
2022-10-19T09:27:01.406Z,38.91849
2022-10-19T09:32:02.893Z,42.4098
2022-10-19T09:37:04.398Z,40.76588
2022-10-19T09:42:06.032Z,43.11716
2022-10-19T09:47:10.230Z,40.62708
2022-10-19T09:52:14.475Z,40.01568
2022-10-19T09:57:16.442Z,41.177
2022-10-19T10:02:17.940Z,40.18218
2022-10-19T10:07:19.457Z,41.05997
2022-10-19T10:12:21.361Z,40.6881
2022-10-19T10:17:23.099Z,41.12559
2022-10-19T10:22:24.870Z,40.59917
2022-10-19T10:27:26.932Z,38.92357
2022-10-19T10:32:28.776Z,39.77371
2022-10-19T10:37:30.808Z,38.17989
2022-10-19T10:42:33.111Z,39.65753
2022-10-19T10:47:35.598Z,41.55777
2022-10-19T10:52:37.759Z,43.86293
2022-10-19T10:57:39.969Z,45.83105
2022-10-19T11:02:41.559Z,49.63719
2022-10-19T11:07:43.384Z,54.4223
2022-10-19T11:12:45.178Z,66.89076
2022-10-19T11:17:46.906Z,84.57843
2022-10-19T11:22:48.677Z,80.45038
2022-10-19T11:27:50.680Z,91.81286
2022-10-19T11:32:52.421Z,93.27741
2022-10-19T11:38:17.596Z,93.81422
2022-10-19T11:43:22.364Z,99.10613
2022-10-19T11:48:26.367Z,94.32711
2022-10-19T11:53:27.849Z,95.08028
2022-10-19T11:58:34.698Z,96.61012
2022-10-19T12:03:36.636Z,99.06021
2022-10-19T12:08:38.141Z,99.0382
2022-10-19T12:13:39.775Z,99.07238
2022-10-19T12:18:41.533Z,91.20992
2022-10-19T12:23:43.041Z,91.87923
2022-10-19T12:28:44.920Z,94.16813
2022-10-19T12:33:46.501Z,94.27738
2022-10-19T12:38:50.821Z,93.12409
2022-10-19T12:43:54.102Z,93.19266
2022-10-19T12:48:55.603Z,90.73938
2022-10-19T12:53:57.145Z,89.1999
2022-10-19T12:58:59.400Z,88.7233
2022-10-19T13:04:00.920Z,89.51145
2022-10-19T13:09:02.698Z,89.95434
2022-10-19T13:14:04.742Z,89.68639
2022-10-19T13:19:06.508Z,87.24525
2022-10-19T13:24:08.296Z,90.90825
2022-10-19T13:29:10.248Z,91.18721
2022-10-19T13:34:11.704Z,95.61348
2022-10-19T13:39:13.177Z,96.13211
2022-10-19T13:44:14.691Z,96.66251
2022-10-19T13:49:16.143Z,97.57893
2022-10-19T13:54:17.665Z,99.26027
2022-10-19T13:59:19.537Z,96.96562
2022-10-19T14:04:21.073Z,97.32111
2022-10-19T14:09:22.532Z,97.52279
2022-10-19T14:14:24.034Z,95.18691
2022-10-19T14:19:25.678Z,96.64838
2022-10-19T14:24:27.339Z,94.13144
2022-10-19T14:29:29.269Z,98.44599
2022-10-19T14:34:31.029Z,93.74918
2022-10-19T14:39:32.786Z,98.12389
2022-10-19T14:44:34.322Z,96.10682
2022-10-19T14:49:36.125Z,95.66232
2022-10-19T14:54:37.975Z,96.38209
2022-10-19T14:59:39.971Z,96.6214
2022-10-19T15:04:41.681Z,94.39962
2022-10-19T15:09:48.163Z,89.18605
2022-10-19T15:14:50.432Z,90.90902
2022-10-19T15:19:51.966Z,93.23264
2022-10-19T15:24:53.602Z,93.55931
2022-10-19T15:29:55.623Z,92.49908
2022-10-19T15:34:57.348Z,92.44524
2022-10-19T15:39:59.123Z,95.02778
2022-10-19T15:45:01.025Z,93.82626
2022-10-19T15:50:02.793Z,96.18489
2022-10-19T15:55:04.643Z,92.71862
2022-10-19T16:00:06.949Z,94.4239
2022-10-19T16:05:08.711Z,90.45011
2022-10-19T16:10:10.524Z,96.03147
2022-10-19T16:15:12.387Z,97.21429
2022-10-19T16:20:13.852Z,95.35239
2022-10-19T16:25:15.486Z,94.81284
2022-10-19T16:30:17.245Z,96.14679
2022-10-19T16:35:18.810Z,95.61487
2022-10-19T16:40:20.371Z,96.37022
2022-10-19T16:45:22.104Z,98.99658
2022-10-19T16:50:23.549Z,98.37397
2022-10-19T16:55:25.300Z,100
2022-10-19T17:00:27.320Z,100
2022-10-19T17:05:28.784Z,100
2022-10-19T17:10:30.635Z,100
2022-10-19T17:15:42.531Z,100
2022-10-19T17:20:45.492Z,100
2022-10-19T17:25:47.281Z,100
2022-10-19T17:30:49.250Z,100
2022-10-19T17:35:51.013Z,99.16948
2022-10-19T17:40:52.757Z,97.33513
2022-10-19T17:45:54.591Z,100
2022-10-19T17:50:56.269Z,100
2022-10-19T17:55:58.197Z,95.59936
2022-10-19T18:01:00.346Z,97.08296
2022-10-19T18:06:04.527Z,98.24215
2022-10-19T18:11:08.798Z,95.07419
2022-10-19T18:16:10.714Z,99.29764
2022-10-19T18:21:12.451Z,99.59732
2022-10-19T18:26:13.972Z,97.94962
2022-10-19T18:31:15.668Z,98.96547
2022-10-19T18:36:17.371Z,96.57637
2022-10-19T18:41:18.875Z,97.53734
2022-10-19T18:46:20.339Z,97.0907
2022-10-19T18:51:21.804Z,95.22039
2022-10-19T18:56:23.325Z,97.86774
2022-10-19T19:01:25.100Z,98.5269
2022-10-19T19:06:26.615Z,98.76891
2022-10-19T19:16:45.193Z,97.07254
2022-10-19T19:21:47.556Z,99.36539
2022-10-19T19:26:49.796Z,97.83476
2022-10-19T19:31:52.543Z,97.57045
2022-10-19T19:36:54.823Z,100
2022-10-19T19:41:56.829Z,98.56331
2022-10-19T19:46:59.104Z,98.73965
2022-10-19T19:52:01.151Z,98.57842
2022-10-19T19:57:03.226Z,98.99666
2022-10-19T20:02:05.808Z,98.8321
2022-10-19T20:07:07.993Z,97.45928
2022-10-19T20:12:09.840Z,96.86401
2022-10-19T20:17:12.022Z,97.25054
2022-10-19T20:22:14.089Z,98.97683
2022-10-19T20:27:15.815Z,100
2022-10-19T20:32:18.296Z,100
2022-10-19T20:37:20.232Z,100
2022-10-19T20:42:22.270Z,100
2022-10-19T20:47:23.982Z,100
2022-10-19T20:52:25.731Z,100
2022-10-19T20:57:27.446Z,100
2022-10-19T21:02:29.801Z,100
2022-10-19T21:07:32.004Z,100
2022-10-19T21:12:34.366Z,100
2022-10-19T21:17:36.731Z,100
2022-10-19T21:22:39.445Z,100
2022-10-19T21:27:41.898Z,100
2022-10-19T21:32:44.301Z,100
2022-10-19T21:37:46.478Z,100
2022-10-19T21:42:48.545Z,100
2022-10-19T21:47:50.521Z,100
2022-10-19T21:52:52.610Z,100
2022-10-19T21:57:54.763Z,100
2022-10-19T22:02:57.130Z,100
2022-10-19T22:07:59.252Z,100
2022-10-19T22:13:01.512Z,100
2022-10-19T22:18:03.678Z,100
2022-10-19T22:23:05.907Z,100
2022-10-19T22:28:08.033Z,100
2022-10-19T22:33:09.963Z,100
2022-10-19T22:38:12.063Z,99.54225
2022-10-19T22:43:14.141Z,99.52679
2022-10-19T22:48:15.977Z,100
2022-10-19T22:53:17.631Z,98.22251
2022-10-19T22:58:19.267Z,96.0713
2022-10-19T23:03:23.290Z,96.05578
2022-10-19T23:08:25.033Z,95.87626
2022-10-19T23:13:27.456Z,95.37767
2022-10-19T23:18:29.830Z,97.06582
2022-10-19T23:23:37.917Z,96.16019
2022-10-19T23:28:39.824Z,94.51935
2022-10-19T23:33:47.799Z,96.08559
2022-10-19T23:38:51.941Z,93.70627
2022-10-19T23:43:53.661Z,95.22974
2022-10-19T23:48:56.939Z,93.11462
2022-10-19T23:53:58.737Z,93.26432
2022-10-19T23:59:02.799Z,92.79108
